Time;durP1;ratioP1;P1;durP2;ratioP2;P2;SDS_P1;SDS_P2;PMS_P1;PMS_P2;Temp;Humidity;BMP_temperature;BMP_pressure;BME280_temperature;BME280_humidity;BME280_pressure;Samples;Min_cycle;Max_cycle;Signal;HPM_P1;HPM_P2
2022/12/25 00:01:39;;;;;;;9.43;3.30;;;10.90;97.70;;;;;;5055248;28;20056;-66
2022/12/25 00:04:04;;;;;;;9.80;3.70;;;10.90;97.80;;;;;;5054803;28;20465;-66
2022/12/25 00:06:30;;;;;;;7.82;3.35;;;10.90;97.80;;;;;;5055058;28;20134;-66
2022/12/25 00:08:56;;;;;;;8.70;3.70;;;10.90;97.90;;;;;;5054857;28;20044;-67
2022/12/25 00:11:21;;;;;;;9.93;3.65;;;10.80;97.90;;;;;;5055297;28;20035;-66
2022/12/25 00:13:47;;;;;;;9.30;3.70;;;10.80;97.90;;;;;;5054894;28;20025;-66
2022/12/25 00:16:19;;;;;;;10.02;3.80;;;10.80;98.10;;;;;;5055207;28;20053;-66
2022/12/25 00:18:45;;;;;;;9.70;2.70;;;10.80;98.00;;;;;;5054414;28;20036;-68
2022/12/25 00:21:12;;;;;;;6.72;2.58;;;10.80;98.10;;;;;;5055178;28;20049;-67
2022/12/25 00:23:38;;;;;;;10.65;3.00;;;10.80;98.00;;;;;;5055315;28;20053;-67
2022/12/25 00:26:09;;;;;;;9.40;2.95;;;10.80;98.10;;;;;;5054648;28;20129;-67
2022/12/25 00:28:35;;;;;;;9.10;3.10;;;10.80;98.30;;;;;;5055119;28;20055;-67
2022/12/25 00:31:20;;;;;;;7.57;2.47;;;10.80;98.40;;;;;;5054552;28;20082;-67
2022/12/25 00:33:48;;;;;;;6.60;2.58;;;10.80;98.60;;;;;;5054672;28;20025;-68
2022/12/25 00:36:16;;;;;;;9.63;2.80;;;10.80;98.70;;;;;;5054726;28;20027;-67
2022/12/25 00:38:42;;;;;;;6.93;2.50;;;10.80;98.70;;;;;;5054633;28;20053;-67
2022/12/25 00:44:04;;;;;;;7.30;3.03;;;10.80;98.90;;;;;;5054400;28;20040;-67
2022/12/25 00:46:29;;;;;;;6.95;2.72;;;10.70;99.10;;;;;;5054406;28;20021;-67
2022/12/25 00:48:58;;;;;;;6.47;2.75;;;10.70;99.10;;;;;;5054180;28;20043;-67
2022/12/25 00:51:24;;;;;;;12.23;2.83;;;10.70;99.20;;;;;;5054469;28;20458;-67
2022/12/25 00:53:50;;;;;;;7.43;2.80;;;10.70;99.30;;;;;;5053812;28;20028;-67
2022/12/25 00:56:17;;;;;;;5.10;2.75;;;10.70;99.40;;;;;;5054454;28;20025;-66
2022/12/25 00:58:42;;;;;;;7.65;2.90;;;10.60;99.30;;;;;;5054208;28;20025;-67
2022/12/25 01:01:10;;;;;;;8.68;3.10;;;10.70;99.50;;;;;;5053858;28;20083;-67
2022/12/25 01:03:36;;;;;;;9.85;2.97;;;10.60;99.30;;;;;;5054420;28;20025;-66
2022/12/25 01:06:05;;;;;;;8.02;2.97;;;10.60;99.40;;;;;;5053045;28;20021;-67
2022/12/25 01:08:36;;;;;;;9.27;2.97;;;10.60;99.40;;;;;;5054227;28;20025;-67
2022/12/25 01:11:05;;;;;;;6.90;3.03;;;10.60;99.40;;;;;;5053836;28;20044;-67
2022/12/25 01:13:33;;;;;;;5.47;2.45;;;10.60;99.50;;;;;;5054197;28;20024;-67
2022/12/25 01:16:10;;;;;;;9.88;2.78;;;10.60;99.70;;;;;;5053685;28;20033;-66
2022/12/25 01:18:37;;;;;;;7.78;2.50;;;10.60;99.70;;;;;;5053777;28;20033;-66
2022/12/25 01:21:10;;;;;;;7.47;2.75;;;10.60;99.70;;;;;;5053269;28;20055;-66
2022/12/25 01:23:37;;;;;;;9.95;2.70;;;10.60;99.70;;;;;;5053897;28;20040;-66
2022/12/25 01:26:07;;;;;;;8.20;3.08;;;10.60;99.70;;;;;;5053637;28;20025;-66
2022/12/25 01:28:33;;;;;;;6.80;2.90;;;10.60;99.80;;;;;;5053522;28;20025;-66
2022/12/25 01:30:59;;;;;;;6.57;2.63;;;10.60;99.90;;;;;;5053628;28;20466;-66
2022/12/25 01:33:25;;;;;;;11.27;3.08;;;10.60;99.90;;;;;;5053671;28;20029;-66
2022/12/25 01:35:51;;;;;;;6.88;2.90;;;10.60;99.90;;;;;;5053610;28;20020;-66
2022/12/25 01:38:16;;;;;;;7.72;2.70;;;10.50;99.90;;;;;;5051846;28;20448;-66
2022/12/25 01:40:42;;;;;;;7.95;2.92;;;10.50;99.90;;;;;;5053561;28;20052;-66
2022/12/25 01:43:31;;;;;;;9.23;3.08;;;10.50;99.90;;;;;;5053145;28;20061;-66
2022/12/25 01:45:57;;;;;;;7.72;2.63;;;10.50;99.90;;;;;;5053460;28;20029;-66
2022/12/25 01:48:33;;;;;;;9.00;2.47;;;10.50;99.90;;;;;;5053459;28;20029;-66
2022/12/25 01:51:04;;;;;;;7.45;2.90;;;10.50;99.70;;;;;;5053059;28;20380;-66
2022/12/25 01:53:30;;;;;;;6.72;3.55;;;10.50;99.70;;;;;;5053336;28;20029;-66
2022/12/25 01:56:02;;;;;;;6.72;2.47;;;10.50;99.70;;;;;;5052889;28;20017;-67
2022/12/25 01:58:28;;;;;;;8.57;2.72;;;10.60;99.90;;;;;;5052985;28;20060;-67
2022/12/25 02:00:54;;;;;;;8.25;2.67;;;10.50;99.90;;;;;;5052014;28;20021;-66
2022/12/25 02:03:21;;;;;;;9.07;3.00;;;10.50;99.90;;;;;;5053198;28;20024;-66
2022/12/25 02:05:47;;;;;;;7.30;2.45;;;10.50;99.90;;;;;;5053067;28;20104;-66
2022/12/25 02:08:15;;;;;;;12.10;2.45;;;10.50;99.90;;;;;;5052630;28;20069;-66
2022/12/25 02:10:43;;;;;;;7.57;2.33;;;10.50;99.90;;;;;;5053207;28;20420;-65
2022/12/25 02:13:13;;;;;;;5.00;2.20;;;10.50;99.90;;;;;;5052214;28;20041;-65
2022/12/25 02:16:05;;;;;;;4.65;2.30;;;10.50;99.90;;;;;;5052569;28;20112;-65
2022/12/25 02:18:57;;;;;;;7.32;2.30;;;10.50;99.90;;;;;;5052409;28;20017;-66
2022/12/25 02:21:43;;;;;;;5.53;2.63;;;10.50;99.90;;;;;;5052864;28;20052;-66
2022/12/25 02:24:39;;;;;;;6.60;2.33;;;10.50;99.90;;;;;;5052422;28;20048;-66
2022/12/25 02:27:34;;;;;;;8.10;2.40;;;10.50;99.90;;;;;;5042956;28;20126;-67
2022/12/25 02:30:06;;;;;;;5.10;2.35;;;10.50;99.90;;;;;;5052066;28;20036;-65
2022/12/25 02:32:46;;;;;;;7.95;2.28;;;10.50;99.90;;;;;;5052826;28;20029;-66
2022/12/25 02:35:29;;;;;;;7.15;2.53;;;10.50;99.90;;;;;;5052316;28;20024;-66
2022/12/25 02:38:16;;;;;;;7.45;2.92;;;10.50;99.90;;;;;;5051769;28;20067;-66
2022/12/25 02:40:48;;;;;;;6.07;2.30;;;10.40;99.90;;;;;;5052767;28;20032;-66
2022/12/25 03:11:57;;;;;;;4.65;1.63;;;10.50;99.20;;;;;;5051958;28;20393;-65
2022/12/25 03:17:08;;;;;;;5.90;1.92;;;10.50;98.70;;;;;;5051793;28;20067;-66
2022/12/25 03:28:01;;;;;;;6.70;2.15;;;10.60;98.50;;;;;;5052727;28;20528;-66
2022/12/25 03:33:30;;;;;;;4.63;1.70;;;10.60;98.20;;;;;;5055712;28;20040;-66
2022/12/25 03:36:07;;;;;;;5.10;1.70;;;10.60;98.20;;;;;;5055993;28;20024;-65
2022/12/25 04:37:41;;;;;;;9.95;3.17;;;10.30;99.70;;;;;;5053824;28;20052;-67
2022/12/25 04:40:09;;;;;;;5.78;2.55;;;10.30;99.80;;;;;;5053098;28;20029;-67
2022/12/25 04:42:35;;;;;;;7.38;2.42;;;10.30;99.90;;;;;;5054666;28;20087;-67
2022/12/25 04:45:01;;;;;;;7.25;2.35;;;10.30;99.90;;;;;;5054724;28;20028;-66
2022/12/25 04:47:26;;;;;;;6.32;2.50;;;10.30;99.90;;;;;;5054207;28;20025;-65
2022/12/25 04:49:52;;;;;;;9.05;3.00;;;10.30;99.90;;;;;;5054333;28;20032;-67
2022/12/25 04:52:17;;;;;;;7.57;2.65;;;10.20;99.90;;;;;;5052551;28;20194;-66
2022/12/25 04:54:43;;;;;;;11.10;3.35;;;10.20;99.90;;;;;;5054457;28;20353;-67
2022/12/25 04:57:09;;;;;;;7.63;2.55;;;10.20;99.90;;;;;;5054012;28;20036;-65
2022/12/25 04:59:34;;;;;;;13.10;2.80;;;10.20;99.90;;;;;;5054064;28;20033;-66
2022/12/25 05:02:00;;;;;;;5.38;1.85;;;10.20;99.90;;;;;;5054314;28;20025;-65
2022/12/25 05:04:26;;;;;;;8.18;2.50;;;10.20;99.90;;;;;;5053829;28;20100;-65
2022/12/25 05:06:51;;;;;;;5.53;2.03;;;10.20;99.90;;;;;;5053932;28;20024;-65
2022/12/25 05:09:17;;;;;;;8.73;2.33;;;10.20;99.90;;;;;;5053481;28;20033;-66
2022/12/25 05:11:43;;;;;;;5.00;1.90;;;10.10;99.70;;;;;;5054114;28;20040;-66
2022/12/25 05:14:08;;;;;;;7.45;2.40;;;10.10;99.70;;;;;;5053845;28;20074;-65
2022/12/25 05:16:34;;;;;;;8.18;2.30;;;10.10;99.80;;;;;;5054070;28;20382;-65
2022/12/25 05:19:00;;;;;;;5.93;2.13;;;10.10;99.90;;;;;;5053967;28;20117;-67
2022/12/25 05:21:25;;;;;;;9.73;2.42;;;10.00;99.90;;;;;;5053864;28;20033;-67
2022/12/25 05:23:52;;;;;;;7.15;2.17;;;10.00;99.90;;;;;;5054006;28;20059;-67
2022/12/25 05:26:21;;;;;;;10.00;2.50;;;10.00;99.90;;;;;;5053543;28;20029;-67
2022/12/25 05:28:47;;;;;;;7.40;2.10;;;10.00;99.90;;;;;;5053865;28;20021;-66
2022/12/25 05:31:13;;;;;;;6.68;2.33;;;9.90;99.90;;;;;;5053135;28;20029;-66
2022/12/25 05:33:39;;;;;;;8.20;2.08;;;9.90;99.90;;;;;;5053727;28;20070;-66
2022/12/25 05:36:07;;;;;;;5.70;2.10;;;9.90;99.90;;;;;;5053759;28;20025;-66
2022/12/25 05:38:33;;;;;;;9.98;2.30;;;9.90;99.90;;;;;;5053722;28;20055;-66
2022/12/25 05:40:59;;;;;;;7.47;2.30;;;9.90;99.90;;;;;;5053635;28;20040;-66
2022/12/25 05:43:25;;;;;;;5.18;1.80;;;9.90;99.90;;;;;;5052989;28;20029;-67
2022/12/25 05:45:51;;;;;;;6.90;2.10;;;9.80;99.90;;;;;;5053134;28;20390;-66
2022/12/25 05:48:17;;;;;;;6.13;2.00;;;9.80;99.90;;;;;;5052955;28;20029;-66
2022/12/25 05:50:42;;;;;;;7.78;2.30;;;9.80;99.90;;;;;;5053038;28;20114;-65
2022/12/25 05:53:11;;;;;;;6.57;2.47;;;9.80;99.90;;;;;;5052981;28;20147;-66
2022/12/25 05:55:38;;;;;;;9.25;3.70;;;9.80;99.90;;;;;;5053214;28;20025;-66
2022/12/25 05:58:05;;;;;;;7.82;2.95;;;9.80;99.90;;;;;;5053216;28;20025;-66
2022/12/25 06:00:32;;;;;;;10.25;3.13;;;9.80;99.90;;;;;;5051336;28;20454;-66
2022/12/25 06:02:58;;;;;;;7.95;2.97;;;9.80;99.90;;;;;;5053213;28;20029;-66
2022/12/25 06:05:23;;;;;;;9.15;2.78;;;9.70;99.90;;;;;;5052768;28;20033;-66
2022/12/25 06:07:49;;;;;;;9.50;3.05;;;9.70;99.90;;;;;;5053124;28;20025;-67
2022/12/25 06:10:15;;;;;;;6.82;2.53;;;9.70;99.90;;;;;;5052347;28;20055;-67
2022/12/25 06:12:40;;;;;;;5.93;2.75;;;9.60;99.90;;;;;;5053059;28;20079;-66
2022/12/25 06:15:07;;;;;;;6.97;2.53;;;9.70;99.90;;;;;;5053029;28;20386;-66
2022/12/25 06:17:33;;;;;;;7.35;2.28;;;9.70;99.90;;;;;;5052406;28;20025;-67
2022/12/25 06:19:58;;;;;;;7.50;2.60;;;9.70;99.90;;;;;;5052701;28;20454;-67
2022/12/25 06:22:28;;;;;;;9.25;2.88;;;9.70;99.90;;;;;;5052171;28;20021;-66
2022/12/25 06:24:54;;;;;;;9.23;2.33;;;9.60;99.90;;;;;;5052699;28;20029;-66
2022/12/25 06:27:19;;;;;;;7.68;2.85;;;9.60;99.90;;;;;;5052154;28;20484;-66
2022/12/25 06:29:45;;;;;;;6.78;2.92;;;9.60;99.90;;;;;;5052566;28;20021;-66
2022/12/25 06:32:10;;;;;;;11.38;3.22;;;9.60;99.90;;;;;;5052333;28;20029;-70
2022/12/25 06:34:36;;;;;;;11.07;3.47;;;9.60;99.90;;;;;;5052617;28;20079;-67
2022/12/25 06:37:02;;;;;;;7.43;3.10;;;9.60;99.90;;;;;;5052295;28;20424;-67
2022/12/25 06:39:28;;;;;;;8.60;3.63;;;9.60;99.90;;;;;;5052526;28;20029;-66
2022/12/25 06:41:54;;;;;;;8.45;3.60;;;9.60;99.90;;;;;;5052131;28;20385;-67
2022/12/25 06:44:20;;;;;;;8.98;3.03;;;9.50;99.90;;;;;;5052169;28;20082;-67
2022/12/25 06:46:45;;;;;;;6.18;2.95;;;9.50;99.90;;;;;;5052801;28;20324;-66
2022/12/25 06:49:11;;;;;;;14.00;3.60;;;9.50;99.90;;;;;;5052461;28;20440;-66
2022/12/25 06:51:37;;;;;;;7.60;3.08;;;9.50;99.90;;;;;;5052465;28;20053;-67
2022/12/25 06:54:03;;;;;;;6.88;3.08;;;9.50;99.90;;;;;;5052315;28;20036;-66
2022/12/25 06:56:29;;;;;;;7.07;2.70;;;9.50;99.90;;;;;;5052047;28;20037;-66
2022/12/25 06:59:13;;;;;;;9.45;3.42;;;9.50;99.90;;;;;;5052370;28;20032;-66
2022/12/25 07:01:45;;;;;;;6.40;2.92;;;9.50;99.90;;;;;;5052472;28;20533;-67
2022/12/25 07:04:36;;;;;;;10.70;3.60;;;9.50;99.90;;;;;;5051863;28;20596;-67
2022/12/25 07:07:03;;;;;;;9.90;3.03;;;9.60;99.90;;;;;;5052471;28;20035;-67
2022/12/25 07:09:29;;;;;;;7.78;3.50;;;9.60;99.90;;;;;;5051556;28;20036;-67
2022/12/25 07:12:14;;;;;;;7.22;3.05;;;9.50;99.90;;;;;;5052181;28;20087;-66
2022/12/25 07:14:40;;;;;;;9.13;3.75;;;9.60;99.90;;;;;;5052390;28;20029;-66
2022/12/25 07:17:05;;;;;;;12.80;3.42;;;9.60;99.90;;;;;;5051961;28;20333;-66
2022/12/25 07:19:31;;;;;;;13.30;3.88;;;9.60;99.90;;;;;;5051672;28;20425;-66
2022/12/25 07:21:57;;;;;;;8.05;3.28;;;9.60;99.90;;;;;;5052213;28;20390;-66
2022/12/25 07:24:23;;;;;;;7.70;3.50;;;9.60;99.90;;;;;;5051740;28;20065;-66
2022/12/25 07:26:50;;;;;;;7.32;3.60;;;9.60;99.90;;;;;;5052176;28;20373;-66
2022/12/25 07:29:16;;;;;;;11.13;3.70;;;9.60;99.90;;;;;;5051378;28;20414;-67
2022/12/25 07:31:42;;;;;;;10.63;3.90;;;9.70;99.90;;;;;;5052148;28;20128;-66
2022/12/25 07:34:08;;;;;;;10.48;3.28;;;9.70;99.90;;;;;;5052107;28;20482;-66
2022/12/25 07:36:34;;;;;;;8.48;3.13;;;9.70;99.90;;;;;;5051577;28;20043;-66
2022/12/25 07:38:59;;;;;;;10.05;3.78;;;9.70;99.90;;;;;;5052311;28;20397;-65
2022/12/25 07:41:25;;;;;;;12.50;5.15;;;9.80;99.90;;;;;;5051650;28;20108;-66
2022/12/25 07:43:52;;;;;;;11.38;4.30;;;9.80;99.90;;;;;;5052016;28;20028;-66
2022/12/25 07:46:19;;;;;;;8.90;3.80;;;9.80;99.90;;;;;;5051484;28;20032;-67
2022/12/25 07:48:44;;;;;;;10.75;3.88;;;9.90;99.90;;;;;;5051666;28;20548;-67
2022/12/25 07:51:12;;;;;;;9.80;3.88;;;9.90;99.90;;;;;;5051668;28;20055;-67
2022/12/25 07:53:38;;;;;;;10.95;3.63;;;9.90;99.90;;;;;;5051216;28;20470;-65
2022/12/25 07:56:10;;;;;;;8.48;3.70;;;9.90;99.90;;;;;;5051770;28;20075;-66
2022/12/25 07:58:36;;;;;;;8.00;3.28;;;9.90;99.90;;;;;;5051642;28;20021;-67
2022/12/25 08:01:23;;;;;;;9.45;3.22;;;9.90;99.90;;;;;;5051854;28;20435;-67
2022/12/25 08:03:54;;;;;;;7.03;2.85;;;9.90;99.90;;;;;;5051948;28;20064;-67
2022/12/25 08:06:21;;;;;;;6.88;3.05;;;9.90;99.90;;;;;;5051898;28;20079;-67
2022/12/25 08:08:47;;;;;;;9.52;3.22;;;9.90;99.90;;;;;;5050244;28;20029;-67
2022/12/25 08:11:13;;;;;;;10.20;3.47;;;9.90;99.90;;;;;;5051815;28;20036;-66
2022/12/25 08:13:39;;;;;;;7.25;3.42;;;9.90;99.90;;;;;;5051330;28;20029;-67
2022/12/25 08:16:07;;;;;;;5.45;3.17;;;9.90;99.90;;;;;;5054082;28;20029;-67
2022/12/25 08:18:34;;;;;;;6.93;3.30;;;9.90;99.90;;;;;;5054821;28;20032;-67
2022/12/25 08:21:04;;;;;;;8.45;3.65;;;9.80;99.90;;;;;;5055308;28;20039;-67
2022/12/25 08:23:33;;;;;;;6.93;3.20;;;9.80;99.90;;;;;;5054936;28;20507;-67
2022/12/25 08:26:00;;;;;;;10.70;3.92;;;9.70;99.90;;;;;;5055102;28;20029;-67
2022/12/25 08:28:27;;;;;;;10.95;3.22;;;9.60;99.90;;;;;;5054721;28;20056;-67
2022/12/25 08:30:53;;;;;;;10.13;3.90;;;9.60;99.90;;;;;;5055066;28;20029;-67
2022/12/25 08:33:18;;;;;;;10.38;4.70;;;9.60;99.90;;;;;;5054945;28;20040;-66
2022/12/25 08:35:44;;;;;;;7.78;3.80;;;9.60;99.90;;;;;;5054413;28;20025;-66
2022/12/25 08:38:10;;;;;;;9.88;3.72;;;9.70;99.90;;;;;;5054809;28;20049;-66
2022/12/25 08:40:35;;;;;;;5.55;3.15;;;9.70;99.90;;;;;;5053595;28;20359;-66
2022/12/25 08:43:01;;;;;;;7.28;3.45;;;9.80;99.90;;;;;;5054887;28;20545;-68
2022/12/25 08:45:26;;;;;;;8.35;3.67;;;9.80;99.90;;;;;;5054320;28;20415;-68
2022/12/25 08:47:56;;;;;;;9.82;3.67;;;9.90;99.90;;;;;;5054390;28;20049;-69
2022/12/25 08:50:23;;;;;;;5.65;3.38;;;9.90;99.90;;;;;;5054309;28;20107;-68
2022/12/25 08:52:48;;;;;;;10.35;3.80;;;9.90;99.90;;;;;;5054779;28;20060;-67
2022/12/25 08:55:14;;;;;;;8.73;3.55;;;10.00;99.90;;;;;;5054240;28;20056;-67
2022/12/25 08:57:40;;;;;;;11.85;3.55;;;9.90;99.90;;;;;;5054186;28;20025;-67
2022/12/25 09:00:07;;;;;;;9.25;3.72;;;9.90;99.90;;;;;;5054433;28;20099;-67
2022/12/25 09:02:32;;;;;;;7.50;3.80;;;10.00;99.90;;;;;;5054180;28;20091;-67
2022/12/25 09:04:58;;;;;;;8.32;3.83;;;10.00;99.90;;;;;;5054698;28;20037;-67
2022/12/25 09:07:24;;;;;;;8.82;4.05;;;10.00;99.90;;;;;;5053790;28;20025;-68
2022/12/25 09:09:49;;;;;;;6.70;3.83;;;10.00;99.90;;;;;;5054010;28;20052;-67
2022/12/25 09:12:15;;;;;;;10.93;3.60;;;10.00;99.90;;;;;;5054564;28;20083;-67
2022/12/25 09:14:40;;;;;;;12.25;3.80;;;10.00;99.90;;;;;;5053774;28;20473;-67
2022/12/25 09:17:06;;;;;;;8.93;3.53;;;10.00;99.90;;;;;;5054556;28;20040;-67
2022/12/25 09:19:32;;;;;;;10.98;3.78;;;10.00;99.90;;;;;;5053657;28;20461;-67
2022/12/25 09:21:57;;;;;;;10.45;4.03;;;10.00;99.40;;;;;;5053807;28;20041;-67
2022/12/25 09:24:23;;;;;;;9.80;3.40;;;10.00;99.70;;;;;;5053737;28;20032;-70
2022/12/25 09:26:49;;;;;;;7.72;3.58;;;10.10;99.90;;;;;;5053343;28;20162;-67
2022/12/25 09:29:16;;;;;;;8.50;3.83;;;10.10;99.40;;;;;;5053924;28;20108;-67
2022/12/25 09:31:42;;;;;;;10.50;4.57;;;10.20;99.70;;;;;;5053587;28;20053;-67
2022/12/25 09:34:08;;;;;;;9.18;3.97;;;10.20;99.30;;;;;;5053600;28;20060;-67
2022/12/25 09:36:34;;;;;;;13.45;3.85;;;10.30;99.80;;;;;;5053436;28;20033;-67
2022/12/25 09:39:00;;;;;;;11.43;4.00;;;10.30;99.30;;;;;;5053286;28;20401;-67
2022/12/25 09:42:05;;;;;;;8.20;3.85;;;10.40;99.20;;;;;;5053046;28;20048;-68
2022/12/25 09:44:39;;;;;;;9.70;4.07;;;10.40;98.80;;;;;;5040820;28;20048;-68
2022/12/25 09:47:10;;;;;;;14.70;4.55;;;10.50;98.20;;;;;;5053682;28;20474;-67
2022/12/25 09:49:38;;;;;;;9.23;4.00;;;10.50;98.50;;;;;;5051849;28;20385;-66
2022/12/25 09:52:37;;;;;;;11.93;4.03;;;10.60;98.60;;;;;;5053201;28;20074;-66
2022/12/25 09:55:11;;;;;;;10.63;3.90;;;10.60;98.00;;;;;;5053233;28;20561;-66
2022/12/25 09:57:37;;;;;;;11.52;4.30;;;10.60;97.30;;;;;;5052822;28;20113;-65
2022/12/25 10:00:05;;;;;;;10.90;4.07;;;10.70;97.20;;;;;;5052909;28;20028;-67
2022/12/25 10:02:47;;;;;;;11.57;4.43;;;10.70;96.70;;;;;;5052619;28;20048;-66
2022/12/25 10:05:24;;;;;;;10.38;4.32;;;10.70;96.30;;;;;;5053282;28;20191;-66
2022/12/25 10:08:08;;;;;;;8.68;4.40;;;10.80;96.70;;;;;;5052963;28;20033;-66
2022/12/25 10:10:49;;;;;;;14.00;4.10;;;10.80;96.30;;;;;;5052935;28;20033;-67
2022/12/25 10:13:37;;;;;;;12.60;4.93;;;10.80;95.60;;;;;;5053016;28;20112;-67
2022/12/25 10:16:11;;;;;;;11.98;3.95;;;10.90;95.80;;;;;;5053714;28;20074;-67
2022/12/25 10:19:00;;;;;;;10.02;3.40;;;10.90;95.10;;;;;;5052925;28;20029;-67
2022/12/25 10:21:26;;;;;;;10.25;3.78;;;10.90;95.10;;;;;;5046308;28;20045;-67
2022/12/25 10:24:01;;;;;;;8.68;3.83;;;11.00;95.20;;;;;;5052812;28;20029;-67
2022/12/25 10:26:30;;;;;;;9.18;3.83;;;11.00;94.70;;;;;;5053107;28;20469;-67
2022/12/25 10:29:04;;;;;;;9.55;3.63;;;11.00;94.40;;;;;;5052762;28;20021;-67
2022/12/25 10:31:34;;;;;;;6.05;3.25;;;11.10;94.10;;;;;;5052481;28;20351;-66
2022/12/25 10:34:00;;;;;;;10.57;4.22;;;11.10;93.70;;;;;;5052830;28;20029;-66
2022/12/25 10:36:28;;;;;;;7.35;3.78;;;11.10;94.10;;;;;;5052612;28;20381;-67
2022/12/25 10:38:54;;;;;;;10.23;3.85;;;11.10;93.50;;;;;;5052291;28;20076;-67
2022/12/25 10:41:53;;;;;;;9.63;3.97;;;11.10;93.80;;;;;;5052738;28;20122;-67
2022/12/25 10:44:23;;;;;;;9.68;3.47;;;11.20;94.30;;;;;;5052296;28;20032;-67
2022/12/25 10:46:59;;;;;;;8.30;3.83;;;11.40;94.40;;;;;;5052061;28;20887;-66
2022/12/25 10:49:37;;;;;;;8.65;4.22;;;11.60;93.80;;;;;;5052696;28;20029;-67
2022/12/25 10:52:17;;;;;;;8.45;3.22;;;11.70;93.20;;;;;;5052662;28;20079;-67
2022/12/25 10:54:42;;;;;;;5.20;3.15;;;11.90;93.30;;;;;;5052278;28;20025;-67
2022/12/25 10:57:08;;;;;;;7.80;3.65;;;12.00;92.80;;;;;;5052687;28;20064;-67
2022/12/25 10:59:41;;;;;;;11.80;3.60;;;12.10;92.50;;;;;;5051674;28;20033;-67
2022/12/25 11:02:29;;;;;;;8.68;3.90;;;12.20;92.60;;;;;;5052522;28;20028;-67
2022/12/25 11:05:04;;;;;;;8.60;3.30;;;12.40;92.30;;;;;;5051075;28;20017;-67
2022/12/25 11:07:30;;;;;;;9.10;3.38;;;12.50;91.80;;;;;;5051457;28;20025;-67
2022/12/25 11:10:17;;;;;;;8.07;2.95;;;12.70;91.70;;;;;;5052440;28;20040;-66
2022/12/25 11:12:44;;;;;;;7.53;3.45;;;12.90;90.80;;;;;;5052109;28;20037;-67
2022/12/25 11:15:28;;;;;;;7.07;3.08;;;13.00;90.40;;;;;;5052451;28;20044;-66
2022/12/25 11:17:54;;;;;;;10.93;3.45;;;13.10;90.00;;;;;;5051547;28;20036;-66
2022/12/25 11:20:20;;;;;;;10.15;3.47;;;13.20;89.60;;;;;;5052152;28;20033;-66
2022/12/25 11:22:48;;;;;;;9.18;4.00;;;13.30;89.30;;;;;;5051956;28;20056;-66
2022/12/25 11:25:21;;;;;;;10.88;4.13;;;13.40;87.90;;;;;;5051901;28;20119;-66
2022/12/25 11:27:57;;;;;;;8.18;3.47;;;13.40;87.40;;;;;;5051928;28;20033;-68
2022/12/25 11:30:22;;;;;;;8.02;3.47;;;13.40;87.20;;;;;;5052160;28;20025;-66
2022/12/25 11:32:54;;;;;;;9.45;3.50;;;13.50;87.00;;;;;;5051825;28;20029;-67
2022/12/25 11:35:23;;;;;;;7.70;3.35;;;13.70;87.00;;;;;;5052242;28;20033;-67
2022/12/25 11:37:52;;;;;;;8.13;3.20;;;13.70;86.50;;;;;;5051256;28;20049;-67
2022/12/25 11:40:26;;;;;;;6.10;3.00;;;13.90;86.40;;;;;;5052022;28;20112;-67
2022/12/25 11:43:02;;;;;;;5.35;2.33;;;14.10;83.10;;;;;;5051694;28;20086;-70
2022/12/25 11:45:51;;;;;;;4.28;1.95;;;14.20;81.20;;;;;;5051798;28;20028;-67
2022/12/25 11:48:22;;;;;;;6.20;2.00;;;14.30;80.50;;;;;;5050302;28;20514;-67
2022/12/25 11:50:54;;;;;;;;;;;14.40;79.30;;;;;;5055439;28;20136;-67
2022/12/25 11:53:34;;;;;;;7.10;2.20;;;14.40;78.90;;;;;;5055661;28;19939;-68
2022/12/25 11:56:21;;;;;;;4.88;2.03;;;14.50;78.70;;;;;;5055866;28;20075;-68
2022/12/25 11:58:51;;;;;;;3.95;1.83;;;14.60;78.70;;;;;;5055227;28;20051;-67
2022/12/25 12:01:26;;;;;;;5.63;2.13;;;14.70;78.40;;;;;;5055460;28;20037;-67
2022/12/25 12:03:53;;;;;;;6.20;2.05;;;14.70;78.00;;;;;;5055177;28;20025;-67
2022/12/25 12:06:45;;;;;;;5.80;2.28;;;14.80;77.60;;;;;;5055269;28;20096;-67
2022/12/25 12:09:25;;;;;;;3.33;1.88;;;14.90;76.70;;;;;;5055548;28;20086;-67
2022/12/25 12:12:10;;;;;;;7.95;2.40;;;14.90;75.70;;;;;;5055077;28;20029;-67
2022/12/25 12:14:57;;;;;;;7.65;2.30;;;14.90;76.40;;;;;;5055164;28;20056;-69
2022/12/25 12:17:23;;;;;;;5.43;2.30;;;14.90;74.70;;;;;;5055437;28;20043;-67
2022/12/25 12:19:49;;;;;;;3.47;1.95;;;14.90;75.50;;;;;;5054756;28;20032;-67
2022/12/25 12:22:26;;;;;;;4.78;2.42;;;14.90;75.50;;;;;;5055146;28;20036;-67
2022/12/25 12:25:00;;;;;;;6.32;2.40;;;14.90;74.70;;;;;;5054748;28;20032;-67
2022/12/25 12:27:39;;;;;;;5.10;2.40;;;15.00;74.40;;;;;;5055449;28;20127;-67
2022/12/25 12:30:20;;;;;;;7.10;2.70;;;15.00;75.30;;;;;;5055073;28;20432;-67
2022/12/25 12:32:51;;;;;;;7.97;2.75;;;15.00;74.70;;;;;;5054753;28;20025;-67
2022/12/25 12:35:25;;;;;;;6.68;2.70;;;15.00;74.60;;;;;;5055217;28;20032;-67
2022/12/25 12:38:01;;;;;;;4.35;2.50;;;15.00;74.20;;;;;;5054140;28;20132;-67
2022/12/25 12:40:35;;;;;;;4.88;2.85;;;15.10;74.50;;;;;;5054835;28;20454;-67
2022/12/25 12:43:02;;;;;;;4.50;2.38;;;15.00;74.10;;;;;;5054304;28;20025;-67
2022/12/25 12:45:36;;;;;;;7.22;2.42;;;15.00;74.70;;;;;;5054227;28;20036;-67
2022/12/25 12:48:23;;;;;;;4.97;2.50;;;15.00;74.60;;;;;;5054245;28;20116;-67
2022/12/25 12:51:00;;;;;;;4.50;2.67;;;15.00;74.60;;;;;;5054295;28;20386;-67
2022/12/25 12:53:27;;;;;;;5.00;3.15;;;15.00;74.70;;;;;;5054610;28;20021;-67
2022/12/25 12:55:54;;;;;;;7.30;3.25;;;14.90;75.40;;;;;;5054159;28;20036;-67
2022/12/25 12:58:34;;;;;;;6.63;3.20;;;14.90;75.60;;;;;;5054684;28;20036;-67
2022/12/25 13:01:08;;;;;;;9.02;3.80;;;14.90;75.90;;;;;;5053288;28;20116;-67
2022/12/25 13:03:43;;;;;;;6.65;4.47;;;14.80;76.90;;;;;;5054605;28;20036;-67
2022/12/25 13:06:43;;;;;;;7.07;4.38;;;14.80;77.40;;;;;;5054443;28;20108;-67
2022/12/25 13:09:41;;;;;;;7.67;5.07;;;14.70;77.70;;;;;;5054719;28;20128;-67
2022/12/25 13:12:07;;;;;;;8.93;4.63;;;14.70;78.20;;;;;;5054038;28;20517;-67
2022/12/25 13:14:34;;;;;;;8.02;5.00;;;14.60;78.30;;;;;;5054022;28;20064;-66
2022/12/25 13:17:00;;;;;;;8.63;5.00;;;14.50;79.10;;;;;;5053588;28;20214;-67
2022/12/25 13:19:27;;;;;;;9.10;5.45;;;14.30;79.70;;;;;;5053900;28;20104;-67
2022/12/25 13:22:02;;;;;;;11.65;6.20;;;14.20;80.60;;;;;;5053779;28;20158;-67
2022/12/25 13:24:31;;;;;;;7.68;5.57;;;14.00;81.70;;;;;;5054088;28;20032;-67
2022/12/25 13:26:58;;;;;;;8.70;5.45;;;13.70;83.00;;;;;;5053624;28;20021;-67
2022/12/25 13:29:37;;;;;;;9.45;5.88;;;13.50;85.00;;;;;;5053756;28;20529;-66
2022/12/25 13:32:22;;;;;;;8.10;6.03;;;13.30;86.50;;;;;;5053611;28;20056;-67
2022/12/25 13:34:49;;;;;;;8.88;6.00;;;13.20;87.90;;;;;;5053304;28;20074;-68
2022/12/25 13:37:17;;;;;;;11.70;6.35;;;13.10;88.20;;;;;;5053765;28;20049;-65
2022/12/25 13:39:53;;;;;;;11.30;6.30;;;12.90;89.30;;;;;;5053429;28;20037;-68
2022/12/25 13:42:31;;;;;;;8.20;6.53;;;12.80;90.10;;;;;;5053717;28;20033;-66
2022/12/25 13:45:05;;;;;;;10.20;6.07;;;12.60;90.80;;;;;;5053617;28;20078;-66
2022/12/25 13:47:37;;;;;;;9.07;6.95;;;12.50;91.50;;;;;;5053521;28;20039;-66
2022/12/25 13:50:32;;;;;;;10.30;6.65;;;12.30;92.40;;;;;;5053356;28;20041;-67
2022/12/25 13:53:10;;;;;;;11.15;6.20;;;12.10;93.20;;;;;;5052998;28;20435;-67
2022/12/25 13:55:35;;;;;;;10.00;6.97;;;12.00;93.90;;;;;;5052991;28;20029;-66
2022/12/25 13:58:04;;;;;;;11.43;7.13;;;11.90;94.50;;;;;;5052952;28;20431;-66
2022/12/25 14:00:51;;;;;;;8.43;6.30;;;11.70;95.20;;;;;;5053134;28;20021;-66
2022/12/25 14:03:21;;;;;;;11.23;7.28;;;11.60;96.00;;;;;;5053448;28;20025;-67
2022/12/25 14:05:56;;;;;;;12.60;7.20;;;11.60;96.50;;;;;;5052812;28;20045;-67
2022/12/25 14:08:26;;;;;;;9.73;6.43;;;11.50;96.90;;;;;;5053335;28;20029;-67
2022/12/25 14:10:52;;;;;;;10.23;6.65;;;11.40;97.40;;;;;;5052827;28;20033;-67
2022/12/25 14:13:22;;;;;;;11.95;7.30;;;11.30;97.90;;;;;;5053452;28;20032;-67
2022/12/25 14:15:49;;;;;;;10.98;6.93;;;11.30;98.10;;;;;;5053054;28;20025;-67
2022/12/25 14:18:17;;;;;;;11.20;7.80;;;11.20;98.50;;;;;;5053393;28;20405;-67
2022/12/25 14:21:13;;;;;;;11.90;7.40;;;11.10;99.00;;;;;;5053317;28;20033;-67
2022/12/25 14:23:45;;;;;;;12.45;7.50;;;11.00;99.60;;;;;;5053517;28;20143;-66
2022/12/25 14:26:18;;;;;;;11.18;8.38;;;10.90;99.90;;;;;;5053003;28;20087;-67
2022/12/25 14:29:04;;;;;;;13.25;8.82;;;10.90;99.90;;;;;;5052974;28;20020;-67
2022/12/25 14:31:31;;;;;;;14.02;9.48;;;10.80;99.90;;;;;;5051709;28;20359;-67
2022/12/25 14:33:59;;;;;;;14.95;9.32;;;10.80;99.90;;;;;;5051275;28;20055;-67
2022/12/25 14:36:26;;;;;;;16.40;10.05;;;10.70;99.90;;;;;;5052024;28;20355;-67
2022/12/25 14:39:00;;;;;;;18.95;10.10;;;10.70;99.90;;;;;;5052779;28;20496;-68
2022/12/25 14:41:37;;;;;;;16.48;10.77;;;10.70;99.90;;;;;;5054890;28;20485;-67
2022/12/25 14:44:24;;;;;;;15.52;10.63;;;10.60;99.90;;;;;;5056488;28;20025;-67
2022/12/25 14:46:49;;;;;;;15.55;10.80;;;10.60;99.90;;;;;;5054686;28;20025;-67
2022/12/25 14:49:23;;;;;;;17.77;11.60;;;10.50;99.90;;;;;;5054451;28;20032;-67
2022/12/25 14:51:49;;;;;;;16.42;10.70;;;10.40;99.90;;;;;;5052631;28;20029;-68